sensor_id;sensor_type;location;lat;lon;timestamp;pressure;altitude;pressure_sealevel;temperature;humidity
14902;BME280;7542;49.078;9.194;2023-02-19T18:30:43;99676.47;;;10.70;64.98
14902;BME280;7542;49.078;9.194;2023-02-19T18:31:45;99681.44;;;11.01;64.36
14902;BME280;7542;49.078;9.194;2023-02-19T18:32:49;99673.38;;;11.40;64.23
14902;BME280;7542;49.078;9.194;2023-02-19T18:33:50;99669.78;;;11.76;62.77
14902;BME280;7542;49.078;9.194;2023-02-19T18:35:00;99681.94;;;12.13;62.42
14902;BME280;7542;49.078;9.194;2023-02-19T18:36:10;99680.06;;;12.49;62.33
14902;BME280;7542;49.078;9.194;2023-02-19T18:37:12;99672.81;;;12.77;61.09
14902;BME280;7542;49.078;9.194;2023-02-19T18:38:14;99676.53;;;13.00;60.25
14902;BME280;7542;49.078;9.194;2023-02-19T18:39:15;99678.50;;;13.24;60.15
14902;BME280;7542;49.078;9.194;2023-02-19T18:40:27;99676.91;;;13.48;58.97
14902;BME280;7542;49.078;9.194;2023-02-19T18:41:29;99678.56;;;13.65;58.92
14902;BME280;7542;49.078;9.194;2023-02-19T18:42:31;99674.97;;;13.82;58.30
14902;BME280;7542;49.078;9.194;2023-02-19T18:43:33;99674.31;;;13.97;58.40
14902;BME280;7542;49.078;9.194;2023-02-19T18:44:35;99677.13;;;14.11;57.94
14902;BME280;7542;49.078;9.194;2023-02-19T18:45:37;99677.63;;;14.23;57.67
14902;BME280;7542;49.078;9.194;2023-02-19T18:46:40;99680.56;;;14.36;57.04
14902;BME280;7542;49.078;9.194;2023-02-19T18:47:45;99685.34;;;14.49;56.75
14902;BME280;7542;49.078;9.194;2023-02-19T18:48:47;99686.97;;;14.58;56.63
14902;BME280;7542;49.078;9.194;2023-02-19T18:49:51;99686.63;;;14.69;56.10
14902;BME280;7542;49.078;9.194;2023-02-19T18:50:53;99687.75;;;14.75;56.23
14902;BME280;7542;49.078;9.194;2023-02-19T18:51:55;99685.91;;;14.84;55.86
14902;BME280;7542;49.078;9.194;2023-02-19T18:52:59;99678.31;;;14.89;55.87
14902;BME280;7542;49.078;9.194;2023-02-19T18:54:01;99686.19;;;14.97;55.12
14902;BME280;7542;49.078;9.194;2023-02-19T18:55:05;99686.34;;;15.03;55.33
14902;BME280;7542;49.078;9.194;2023-02-19T18:56:07;99683.34;;;15.06;54.94
14902;BME280;7542;49.078;9.194;2023-02-19T18:57:09;99682.69;;;15.13;54.73
14902;BME280;7542;49.078;9.194;2023-02-19T18:58:11;99689.25;;;15.17;54.97
14902;BME280;7542;49.078;9.194;2023-02-19T18:59:13;99687.59;;;15.24;54.20
14902;BME280;7542;49.078;9.194;2023-02-19T19:00:20;99688.06;;;15.27;54.19
14902;BME280;7542;49.078;9.194;2023-02-19T19:01:24;99692.00;;;15.31;54.34
14902;BME280;7542;49.078;9.194;2023-02-19T19:02:26;99686.38;;;15.34;54.39
14902;BME280;7542;49.078;9.194;2023-02-19T19:03:40;99687.47;;;15.40;53.93
14902;BME280;7542;49.078;9.194;2023-02-19T19:04:42;99683.53;;;15.44;53.58
14902;BME280;7542;49.078;9.194;2023-02-19T19:05:43;99683.34;;;15.46;54.00
14902;BME280;7542;49.078;9.194;2023-02-19T19:06:45;99680.34;;;15.49;54.05
14902;BME280;7542;49.078;9.194;2023-02-19T19:07:53;99685.94;;;15.54;53.54
14902;BME280;7542;49.078;9.194;2023-02-19T19:08:56;99686.75;;;15.54;53.46
14902;BME280;7542;49.078;9.194;2023-02-19T19:09:58;99687.22;;;15.58;53.04
14902;BME280;7542;49.078;9.194;2023-02-19T19:11:00;99696.81;;;15.59;53.92
14902;BME280;7542;49.078;9.194;2023-02-19T19:12:03;99699.94;;;15.62;53.51
14902;BME280;7542;49.078;9.194;2023-02-19T19:13:05;99699.78;;;15.64;53.72
14902;BME280;7542;49.078;9.194;2023-02-19T19:14:07;99704.72;;;15.67;53.51
14902;BME280;7542;49.078;9.194;2023-02-19T19:15:09;99705.38;;;15.69;53.08
14902;BME280;7542;49.078;9.194;2023-02-19T19:16:11;99704.19;;;15.72;52.60
14902;BME280;7542;49.078;9.194;2023-02-19T19:17:13;99703.19;;;15.73;52.56
14902;BME280;7542;49.078;9.194;2023-02-19T19:18:15;99710.97;;;15.74;52.99
14902;BME280;7542;49.078;9.194;2023-02-19T19:19:17;99709.78;;;15.77;52.77
14902;BME280;7542;49.078;9.194;2023-02-19T19:20:22;99710.44;;;15.79;52.42
14902;BME280;7542;49.078;9.194;2023-02-19T19:21:24;99713.06;;;15.79;52.25
14902;BME280;7542;49.078;9.194;2023-02-19T19:22:26;99712.25;;;15.78;52.88
14902;BME280;7542;49.078;9.194;2023-02-19T19:23:28;99705.31;;;15.77;52.73
14902;BME280;7542;49.078;9.194;2023-02-19T19:24:29;99715.72;;;15.79;52.80
14902;BME280;7542;49.078;9.194;2023-02-19T19:25:31;99709.44;;;15.80;52.53
14902;BME280;7542;49.078;9.194;2023-02-19T19:26:34;99709.59;;;15.78;52.38
14902;BME280;7542;49.078;9.194;2023-02-19T19:27:36;99711.25;;;15.79;52.00
14902;BME280;7542;49.078;9.194;2023-02-19T19:28:39;99700.69;;;15.79;52.02
14902;BME280;7542;49.078;9.194;2023-02-19T19:29:44;99705.78;;;15.81;52.14
14902;BME280;7542;49.078;9.194;2023-02-19T19:30:48;99712.53;;;15.83;52.22
14902;BME280;7542;49.078;9.194;2023-02-19T19:31:50;99704.59;;;15.83;51.52
14902;BME280;7542;49.078;9.194;2023-02-19T19:32:52;99711.53;;;15.84;51.75
14902;BME280;7542;49.078;9.194;2023-02-19T19:33:54;99708.75;;;15.86;52.30
14902;BME280;7542;49.078;9.194;2023-02-19T19:34:56;99710.38;;;15.87;52.36
14902;BME280;7542;49.078;9.194;2023-02-19T19:35:58;99709.56;;;15.86;51.75
14902;BME280;7542;49.078;9.194;2023-02-19T19:37:00;99722.59;;;15.88;51.67
14902;BME280;7542;49.078;9.194;2023-02-19T19:38:01;99709.19;;;15.89;51.27
14902;BME280;7542;49.078;9.194;2023-02-19T19:39:04;99709.19;;;15.89;52.15
14902;BME280;7542;49.078;9.194;2023-02-19T19:40:07;99711.84;;;15.89;51.99
14902;BME280;7542;49.078;9.194;2023-02-19T19:41:15;99708.03;;;15.92;51.10
14902;BME280;7542;49.078;9.194;2023-02-19T19:42:17;99713.50;;;15.90;51.45
14902;BME280;7542;49.078;9.194;2023-02-19T19:43:19;99710.66;;;15.92;50.86
14902;BME280;7542;49.078;9.194;2023-02-19T19:44:21;99713.31;;;15.92;51.14
14902;BME280;7542;49.078;9.194;2023-02-19T19:45:23;99708.19;;;15.90;51.12
14902;BME280;7542;49.078;9.194;2023-02-19T19:46:25;99716.13;;;15.90;51.81
14902;BME280;7542;49.078;9.194;2023-02-19T19:47:27;99709.66;;;15.93;51.34
14902;BME280;7542;49.078;9.194;2023-02-19T19:48:29;99721.06;;;15.93;51.67
14902;BME280;7542;49.078;9.194;2023-02-19T19:49:31;99721.06;;;15.93;50.95
14902;BME280;7542;49.078;9.194;2023-02-19T19:50:33;99724.72;;;15.92;51.61
14902;BME280;7542;49.078;9.194;2023-02-19T19:51:35;99718.25;;;15.95;50.55
14902;BME280;7542;49.078;9.194;2023-02-19T19:52:37;99722.56;;;15.96;50.91
14902;BME280;7542;49.078;9.194;2023-02-19T19:53:39;99727.16;;;15.94;50.63
14902;BME280;7542;49.078;9.194;2023-02-19T19:54:42;99722.06;;;15.92;51.08
14902;BME280;7542;49.078;9.194;2023-02-19T19:55:44;99723.06;;;15.91;51.35
14902;BME280;7542;49.078;9.194;2023-02-19T19:56:46;99720.41;;;15.91;50.76
14902;BME280;7542;49.078;9.194;2023-02-19T19:57:48;99720.41;;;15.91;51.65
14902;BME280;7542;49.078;9.194;2023-02-19T19:58:50;99719.41;;;15.92;51.25
14902;BME280;7542;49.078;9.194;2023-02-19T19:59:52;99716.78;;;15.92;50.93
14902;BME280;7542;49.078;9.194;2023-02-19T20:00:54;99714.13;;;15.92;51.42
14902;BME280;7542;49.078;9.194;2023-02-19T20:01:56;99711.66;;;15.91;50.57
14902;BME280;7542;49.078;9.194;2023-02-19T20:02:58;99718.59;;;15.92;51.17
14902;BME280;7542;49.078;9.194;2023-02-19T20:04:00;99716.78;;;15.92;50.93
14902;BME280;7542;49.078;9.194;2023-02-19T20:05:02;99722.88;;;15.93;51.06
14902;BME280;7542;49.078;9.194;2023-02-19T20:06:04;99720.41;;;15.91;50.29
14902;BME280;7542;49.078;9.194;2023-02-19T20:07:06;99715.13;;;15.91;50.81
14902;BME280;7542;49.078;9.194;2023-02-19T20:08:08;99716.78;;;15.92;50.31
14902;BME280;7542;49.078;9.194;2023-02-19T20:09:10;99715.94;;;15.92;50.39
14902;BME280;7542;49.078;9.194;2023-02-19T20:10:13;99716.97;;;15.91;50.54
14902;BME280;7542;49.078;9.194;2023-02-19T20:11:17;99724.72;;;15.92;50.89
14902;BME280;7542;49.078;9.194;2023-02-19T20:12:19;99714.94;;;15.93;50.46
14902;BME280;7542;49.078;9.194;2023-02-19T20:13:21;99713.50;;;15.90;50.49
14902;BME280;7542;49.078;9.194;2023-02-19T20:14:25;99724.72;;;15.92;50.71
14902;BME280;7542;49.078;9.194;2023-02-19T20:15:27;99724.72;;;15.92;50.31
14902;BME280;7542;49.078;9.194;2023-02-19T20:16:29;99722.88;;;15.93;50.44
14902;BME280;7542;49.078;9.194;2023-02-19T20:17:30;99720.78;;;15.88;50.70
14902;BME280;7542;49.078;9.194;2023-02-19T20:18:33;99721.41;;;15.90;50.86
14902;BME280;7542;49.078;9.194;2023-02-19T20:19:35;99724.25;;;15.89;51.28
14902;BME280;7542;49.078;9.194;2023-02-19T20:20:37;99720.41;;;15.91;51.18
14902;BME280;7542;49.078;9.194;2023-02-19T20:21:42;99729.19;;;15.92;50.45
14902;BME280;7542;49.078;9.194;2023-02-19T20:22:44;99723.88;;;15.92;51.24
14902;BME280;7542;49.078;9.194;2023-02-19T20:23:46;99732.81;;;15.91;50.79
14902;BME280;7542;49.078;9.194;2023-02-19T20:24:52;99727.53;;;15.91;51.37
14902;BME280;7542;49.078;9.194;2023-02-19T20:25:55;99728.34;;;15.91;51.46
